createdAt,value
2018-05-26T00:01:21.269Z,3.53
2018-05-26T00:03:48.794Z,3.77
2018-05-26T00:06:16.416Z,5.60
2018-05-26T00:08:43.966Z,7.33
2018-05-26T00:11:12.109Z,6.03
2018-05-26T00:13:40.395Z,5.33
2018-05-26T00:16:08.640Z,7.20
2018-05-26T00:18:36.194Z,4.70
2018-05-26T00:21:03.666Z,4.63
2018-05-26T00:23:31.345Z,3.33
2018-05-26T00:25:59.592Z,3.23
2018-05-26T00:28:27.059Z,3.20
2018-05-26T00:30:54.619Z,9.87
2018-05-26T00:33:22.149Z,7.47
2018-05-26T00:35:49.646Z,8.17
2018-05-26T00:38:17.912Z,5.27
2018-05-26T00:40:45.398Z,3.60
2018-05-26T00:43:12.915Z,6.87
2018-05-26T00:45:40.399Z,7.17
2018-05-26T00:48:08.638Z,7.03
2018-05-26T00:50:36.188Z,7.13
2018-05-26T00:53:03.654Z,4.00
2018-05-26T00:55:31.638Z,4.60
2018-05-26T00:57:59.122Z,5.97
2018-05-26T01:00:27.393Z,9.57
2018-05-26T01:02:55.805Z,9.47
2018-05-26T01:05:23.401Z,4.50
2018-05-26T01:07:50.951Z,5.50
2018-05-26T01:10:18.435Z,11.67
2018-05-26T01:12:46.685Z,4.10
2018-05-26T01:15:14.406Z,3.10
2018-05-26T01:17:42.775Z,5.80
2018-05-26T01:20:11.042Z,3.57
2018-05-26T01:22:39.766Z,9.03
2018-05-26T01:25:07.243Z,9.30
2018-05-26T01:27:34.738Z,7.97
2018-05-26T01:30:02.274Z,6.67
2018-05-26T01:32:29.768Z,4.37
2018-05-26T01:34:58.006Z,4.60
2018-05-26T01:37:25.614Z,6.70
2018-05-26T01:39:53.896Z,9.47
2018-05-26T01:42:21.793Z,8.93
2018-05-26T01:44:49.892Z,6.50
2018-05-26T01:47:18.156Z,4.93
2018-05-26T01:49:45.650Z,3.97
2018-05-26T01:52:13.905Z,5.27
2018-05-26T01:54:41.396Z,6.37
2018-05-26T01:57:09.725Z,9.97
2018-05-26T01:59:37.234Z,5.83
2018-05-26T02:02:05.541Z,5.70
2018-05-26T02:04:33.008Z,9.67
2018-05-26T02:07:00.483Z,10.07
2018-05-26T02:09:28.873Z,5.03
2018-05-26T02:11:56.377Z,9.53
2018-05-26T02:14:23.967Z,10.27
2018-05-26T02:16:51.446Z,5.73
2018-05-26T02:19:19.677Z,4.63
2018-05-26T02:21:47.167Z,5.53
2018-05-26T02:24:14.765Z,3.67
2018-05-26T02:26:43.153Z,4.87
2018-05-26T02:29:10.679Z,9.67
2018-05-26T02:31:38.754Z,11.23
2018-05-26T02:34:06.241Z,5.47
2018-05-26T02:36:34.510Z,6.63
2018-05-26T02:39:02.825Z,3.73
2018-05-26T02:41:30.320Z,3.37
2018-05-26T02:43:58.014Z,5.27
2018-05-26T02:46:26.250Z,5.53
2018-05-26T02:48:53.727Z,5.43
2018-05-26T02:51:21.282Z,9.63
2018-05-26T02:53:50.349Z,6.10
2018-05-26T02:56:17.829Z,9.50
2018-05-26T02:58:45.805Z,11.53
2018-05-26T03:01:14.062Z,10.77
2018-05-26T03:03:41.630Z,11.70
2018-05-26T03:06:16.430Z,7.20
2018-05-26T03:08:49.593Z,5.50
2018-05-26T03:11:22.824Z,7.17
2018-05-26T03:13:56.029Z,7.23
2018-05-26T03:16:29.936Z,8.77
2018-05-26T03:18:57.447Z,11.77
2018-05-26T03:21:25.184Z,5.70
2018-05-26T03:23:53.518Z,4.30
2018-05-26T03:26:21.138Z,10.00
2018-05-26T03:28:49.384Z,5.40
2018-05-26T03:31:16.866Z,5.90
2018-05-26T03:33:45.236Z,5.67
2018-05-26T03:36:13.619Z,6.40
2018-05-26T03:38:41.897Z,3.70
2018-05-26T03:41:09.395Z,4.03
2018-05-26T03:43:36.901Z,3.00
2018-05-26T03:46:04.469Z,3.60
2018-05-26T03:48:32.735Z,5.73
2018-05-26T03:51:00.215Z,3.93
2018-05-26T03:53:28.463Z,4.80
2018-05-26T03:56:07.886Z,9.00
2018-05-26T03:58:47.881Z,13.10
2018-05-26T04:01:15.536Z,11.00
2018-05-26T04:03:42.970Z,8.43
2018-05-26T04:06:10.474Z,8.77
2018-05-26T04:08:37.975Z,4.87
2018-05-26T04:11:07.166Z,4.27
2018-05-26T04:13:34.695Z,4.10
2018-05-26T04:16:02.170Z,4.90
2018-05-26T04:18:29.655Z,4.70
2018-05-26T04:20:57.157Z,8.97
2018-05-26T04:23:24.798Z,5.60
2018-05-26T04:25:53.050Z,6.37
2018-05-26T04:28:20.572Z,10.43
2018-05-26T04:30:48.091Z,12.03
2018-05-26T04:33:16.354Z,11.43
2018-05-26T04:35:45.334Z,12.60
2018-05-26T04:38:13.589Z,11.53
2018-05-26T04:40:41.121Z,7.70
2018-05-26T04:43:08.888Z,9.93
2018-05-26T04:45:36.374Z,5.57
2018-05-26T04:48:04.474Z,6.77
2018-05-26T04:50:32.717Z,7.53
2018-05-26T04:53:00.229Z,11.67
2018-05-26T04:55:27.786Z,8.57
2018-05-26T04:57:56.051Z,7.43
2018-05-26T05:00:24.289Z,6.97
2018-05-26T05:02:51.868Z,12.23
2018-05-26T05:05:20.225Z,10.53
2018-05-26T05:07:47.747Z,11.00
2018-05-26T05:10:15.270Z,11.67
2018-05-26T05:12:42.785Z,13.17
2018-05-26T05:15:10.295Z,9.43
2018-05-26T05:17:37.798Z,9.33
2018-05-26T05:20:05.370Z,8.17
2018-05-26T05:22:32.965Z,6.20
2018-05-26T05:25:00.441Z,4.93
2018-05-26T05:27:28.719Z,12.17
2018-05-26T05:29:56.243Z,11.83
2018-05-26T05:32:23.709Z,11.73
2018-05-26T05:34:51.282Z,9.57
2018-05-26T05:37:18.843Z,5.50
2018-05-26T05:39:46.797Z,4.83
2018-05-26T05:42:14.328Z,9.43
2018-05-26T05:44:42.290Z,4.90
2018-05-26T05:47:09.746Z,5.30
2018-05-26T05:49:37.233Z,13.03
2018-05-26T05:52:04.713Z,11.03
2018-05-26T05:54:33.033Z,7.20
2018-05-26T05:57:00.498Z,9.40
2018-05-26T05:59:28.068Z,11.40
2018-05-26T06:01:55.559Z,10.37
2018-05-26T06:04:23.183Z,12.83
2018-05-26T06:06:50.692Z,12.53
2018-05-26T06:09:18.979Z,12.10
2018-05-26T06:11:46.475Z,11.37
2018-05-26T06:14:13.981Z,9.00
2018-05-26T06:16:42.246Z,13.97
2018-05-26T06:19:09.895Z,11.57
2018-05-26T06:21:38.356Z,12.90
2018-05-26T06:24:05.922Z,11.67
2018-05-26T06:26:33.731Z,9.93
2018-05-26T06:29:02.168Z,9.67
2018-05-26T06:31:29.666Z,11.60
2018-05-26T06:33:57.941Z,8.10
2018-05-26T06:36:26.190Z,5.60
2018-05-26T06:38:53.677Z,6.23
2018-05-26T06:41:21.915Z,5.13
2018-05-26T06:43:49.479Z,9.40
2018-05-26T06:46:17.917Z,6.97
2018-05-26T06:48:45.403Z,6.50
2018-05-26T06:51:12.878Z,5.33
2018-05-26T06:53:40.468Z,13.53
2018-05-26T06:56:08.779Z,10.47
2018-05-26T06:58:36.302Z,9.73
2018-05-26T07:01:04.565Z,7.23
2018-05-26T07:03:34.007Z,6.80
2018-05-26T07:06:01.525Z,8.03
2018-05-26T07:08:29.094Z,8.90
2018-05-26T07:10:56.564Z,9.73
2018-05-26T07:13:24.808Z,9.53
2018-05-26T07:15:52.301Z,8.80
2018-05-26T07:18:19.854Z,10.10
2018-05-26T07:20:48.116Z,9.63
2018-05-26T07:23:16.421Z,11.00
2018-05-26T07:25:43.901Z,8.70
2018-05-26T07:28:11.384Z,4.80
2018-05-26T07:30:38.968Z,6.97
2018-05-26T07:33:06.499Z,8.43
2018-05-26T07:35:34.001Z,7.60
2018-05-26T07:38:02.273Z,8.53
2018-05-26T07:40:30.515Z,6.43
2018-05-26T07:42:58.030Z,5.13
2018-05-26T07:45:25.539Z,7.13
2018-05-26T07:47:53.124Z,5.43
2018-05-26T07:50:21.370Z,8.67
2018-05-26T07:52:48.952Z,7.03
2018-05-26T07:55:17.217Z,6.27
2018-05-26T07:57:44.710Z,6.10
2018-05-26T08:00:12.229Z,4.63
2018-05-26T08:02:39.809Z,7.80
2018-05-26T08:05:07.361Z,7.80
2018-05-26T08:07:34.868Z,6.77
2018-05-26T08:10:02.358Z,6.00
2018-05-26T08:12:29.886Z,5.70
2018-05-26T08:14:57.487Z,5.13
2018-05-26T08:17:24.978Z,5.47
2018-05-26T08:19:52.487Z,5.03
2018-05-26T08:22:20.187Z,5.97
2018-05-26T08:24:48.573Z,6.93
2018-05-26T08:27:16.076Z,5.80
2018-05-26T08:29:43.765Z,6.03
2018-05-26T08:32:12.890Z,5.17
2018-05-26T08:34:41.230Z,5.27
2018-05-26T08:37:08.722Z,5.57
2018-05-26T08:39:36.975Z,3.57
2018-05-26T08:42:04.501Z,3.37
2018-05-26T08:44:32.012Z,3.60
2018-05-26T08:47:00.361Z,4.67
2018-05-26T08:49:27.914Z,4.03
2018-05-26T08:51:55.468Z,5.28
2018-05-26T08:54:23.712Z,3.58
2018-05-26T08:56:51.247Z,5.22
2018-05-26T08:59:19.533Z,3.08
2018-05-26T09:01:47.769Z,5.62
2018-05-26T09:04:15.312Z,2.95
2018-05-26T09:06:42.846Z,5.10
2018-05-26T09:09:10.331Z,5.93
2018-05-26T09:11:37.903Z,5.47
2018-05-26T09:14:06.171Z,4.68
2018-05-26T09:16:34.496Z,5.10
2018-05-26T09:19:02.044Z,3.70
2018-05-26T09:21:30.304Z,6.12
2018-05-26T09:23:57.858Z,4.28
2018-05-26T09:26:25.459Z,3.85
2018-05-26T09:28:52.930Z,3.33
2018-05-26T09:31:20.434Z,4.87
2018-05-26T09:33:47.925Z,2.67
2018-05-26T09:36:15.519Z,3.50
2018-05-26T09:38:43.207Z,4.07
2018-05-26T09:41:10.670Z,4.50
2018-05-26T09:43:38.228Z,2.80
2018-05-26T09:46:05.684Z,4.00
2018-05-26T09:48:33.179Z,3.05
2018-05-26T09:51:01.422Z,4.57
2018-05-26T09:53:29.608Z,3.62
2018-05-26T09:55:57.878Z,4.47
2018-05-26T09:58:25.471Z,3.60
2018-05-26T10:00:53.005Z,3.50
2018-05-26T10:03:21.338Z,4.00
2018-05-26T10:05:48.859Z,3.20
2018-05-26T10:08:17.118Z,2.37
2018-05-26T10:10:45.262Z,4.03
2018-05-26T10:13:12.731Z,3.22
2018-05-26T10:15:40.303Z,3.78
2018-05-26T10:18:08.906Z,2.90
2018-05-26T10:20:36.415Z,3.80
2018-05-26T10:23:03.906Z,5.68
2018-05-26T10:25:31.385Z,3.17
2018-05-26T10:28:00.542Z,3.83
2018-05-26T10:30:29.109Z,3.35
2018-05-26T10:32:56.606Z,2.90
2018-05-26T10:35:24.867Z,3.58
2018-05-26T10:37:52.382Z,3.00
2018-05-26T10:40:19.923Z,2.53
2018-05-26T10:42:47.417Z,2.72
2018-05-26T10:45:14.889Z,2.42
2018-05-26T10:47:42.437Z,2.60
2018-05-26T10:50:09.903Z,3.20
2018-05-26T10:52:37.488Z,4.50
2018-05-26T10:55:05.767Z,1.92
2018-05-26T10:57:34.023Z,2.28
2018-05-26T11:00:01.570Z,3.15
2018-05-26T11:02:29.120Z,2.80
2018-05-26T11:04:57.409Z,2.37
2018-05-26T11:07:25.048Z,2.33
2018-05-26T11:09:52.539Z,2.30
2018-05-26T11:12:20.095Z,2.15
2018-05-26T11:14:47.669Z,1.70
2018-05-26T11:17:15.198Z,2.85
2018-05-26T11:19:42.679Z,2.70
2018-05-26T11:22:10.198Z,4.28
2018-05-26T11:24:37.956Z,2.28
2018-05-26T11:27:05.326Z,2.92
2018-05-26T11:29:32.848Z,4.30
2018-05-26T11:32:01.068Z,2.47
2018-05-26T11:34:28.574Z,3.03
2018-05-26T11:36:56.055Z,2.97
2018-05-26T11:39:23.566Z,1.98
2018-05-26T11:41:51.066Z,3.95
2018-05-26T11:44:18.575Z,2.58
2018-05-26T11:46:46.118Z,3.25
2018-05-26T11:49:13.623Z,3.42
2018-05-26T11:51:41.871Z,3.53
2018-05-26T11:54:09.370Z,3.08
2018-05-26T11:56:36.871Z,3.87
2018-05-26T11:59:04.465Z,4.57
2018-05-26T12:01:31.980Z,2.22
2018-05-26T12:03:59.508Z,3.00
2018-05-26T12:06:27.050Z,2.20
2018-05-26T12:08:55.280Z,3.75
2018-05-26T12:11:22.774Z,1.92
2018-05-26T12:13:51.093Z,1.45
2018-05-26T12:16:18.603Z,4.32
2018-05-26T12:18:46.875Z,2.80
2018-05-26T12:21:14.481Z,3.65
2018-05-26T12:23:41.954Z,3.12
2018-05-26T12:26:09.479Z,2.25
2018-05-26T12:28:37.005Z,2.45
2018-05-26T12:31:04.532Z,2.60
2018-05-26T12:33:32.831Z,2.87
2018-05-26T12:36:00.456Z,2.35
2018-05-26T12:38:28.019Z,3.33
2018-05-26T12:40:56.258Z,3.60
2018-05-26T12:43:24.508Z,3.15
2018-05-26T12:45:53.507Z,2.65
2018-05-26T12:48:21.757Z,2.58
2018-05-26T12:50:49.229Z,3.45
2018-05-26T12:53:16.711Z,4.43
2018-05-26T12:55:45.010Z,7.47
2018-05-26T12:58:12.495Z,3.35
2018-05-26T13:00:40.034Z,4.80
2018-05-26T13:03:07.524Z,2.55
2018-05-26T13:05:35.035Z,2.97
2018-05-26T13:08:03.905Z,2.67
2018-05-26T13:10:31.399Z,2.22
2018-05-26T13:12:58.891Z,2.85
2018-05-26T13:15:26.458Z,3.08
2018-05-26T13:17:53.966Z,2.85
2018-05-26T13:20:22.213Z,2.50
2018-05-26T13:22:49.721Z,3.25
2018-05-26T13:25:17.210Z,2.15
2018-05-26T13:27:44.859Z,2.95
2018-05-26T13:30:12.460Z,4.15
2018-05-26T13:32:40.713Z,2.78
2018-05-26T13:35:08.188Z,4.95
2018-05-26T13:37:36.530Z,2.65
2018-05-26T13:40:04.072Z,2.55
2018-05-26T13:42:31.588Z,4.87
2018-05-26T13:44:59.884Z,2.58
2018-05-26T13:47:27.366Z,3.33
2018-05-26T13:49:54.889Z,2.50
2018-05-26T13:52:23.218Z,2.30
2018-05-26T13:54:51.508Z,2.83
2018-05-26T13:57:19.001Z,2.60
2018-05-26T13:59:46.638Z,3.37
2018-05-26T14:02:14.161Z,3.58
2018-05-26T14:04:41.763Z,2.95
2018-05-26T14:07:09.270Z,2.60
2018-05-26T14:09:37.496Z,6.57
2018-05-26T14:12:05.691Z,2.42
2018-05-26T14:14:33.943Z,2.50
2018-05-26T14:17:01.430Z,2.65
2018-05-26T14:19:30.386Z,3.42
2018-05-26T14:21:57.879Z,2.58
2018-05-26T14:24:26.154Z,2.65
2018-05-26T14:26:54.607Z,3.10
2018-05-26T14:29:22.233Z,3.00
2018-05-26T14:31:49.718Z,4.22
2018-05-26T14:34:17.276Z,2.53
2018-05-26T14:36:45.573Z,4.32
2018-05-26T14:39:13.219Z,2.40
2018-05-26T14:41:40.827Z,2.15
2018-05-26T14:44:08.392Z,3.45
2018-05-26T14:46:35.972Z,2.45
2018-05-26T14:49:03.444Z,2.78
2018-05-26T14:51:30.926Z,1.65
2018-05-26T14:53:58.494Z,3.70
2018-05-26T14:56:26.765Z,2.12
2018-05-26T14:58:55.166Z,3.12
2018-05-26T15:01:22.711Z,1.60
2018-05-26T15:03:50.246Z,2.35
2018-05-26T15:06:17.746Z,3.08
2018-05-26T15:08:45.575Z,2.47
2018-05-26T15:11:13.053Z,3.08
2018-05-26T15:13:41.311Z,3.58
2018-05-26T15:16:08.813Z,4.03
2018-05-26T15:18:36.310Z,2.33
2018-05-26T15:21:03.786Z,2.40
2018-05-26T15:23:31.270Z,2.40
2018-05-26T15:25:59.522Z,2.97
2018-05-26T15:28:27.076Z,3.03
2018-05-26T15:30:55.050Z,2.87
2018-05-26T15:33:22.609Z,4.78
2018-05-26T15:35:50.198Z,3.15
2018-05-26T15:38:17.709Z,3.15
2018-05-26T15:40:45.198Z,3.87
2018-05-26T15:43:13.516Z,2.65
2018-05-26T15:45:41.033Z,4.22
2018-05-26T15:48:09.283Z,2.37
2018-05-26T15:50:36.824Z,2.75
2018-05-26T15:53:04.364Z,3.75
2018-05-26T15:55:31.896Z,3.95
2018-05-26T15:58:00.171Z,2.87
2018-05-26T16:00:28.481Z,2.58
2018-05-26T16:02:56.102Z,3.30
2018-05-26T16:05:24.345Z,4.37
2018-05-26T16:07:51.859Z,5.10
2018-05-26T16:10:19.954Z,4.68
2018-05-26T16:12:47.414Z,3.83
2018-05-26T16:15:15.006Z,5.30
2018-05-26T16:17:42.574Z,3.22
2018-05-26T16:20:10.842Z,3.40
2018-05-26T16:22:38.337Z,4.18
2018-05-26T16:25:05.842Z,2.70
2018-05-26T16:27:33.327Z,4.28
2018-05-26T16:30:00.921Z,3.15
2018-05-26T16:32:28.407Z,2.87
2018-05-26T16:34:55.897Z,4.15
2018-05-26T16:37:23.375Z,5.07
2018-05-26T16:39:51.639Z,3.42
2018-05-26T16:42:19.886Z,6.22
2018-05-26T16:44:47.507Z,4.18
2018-05-26T16:47:14.991Z,2.72
2018-05-26T16:49:42.562Z,4.30
2018-05-26T16:52:10.066Z,4.35
2018-05-26T16:54:37.611Z,3.55
2018-05-26T16:57:05.848Z,4.90
2018-05-26T16:59:33.321Z,4.85
2018-05-26T17:02:01.198Z,5.78
2018-05-26T17:04:28.682Z,7.35
2018-05-26T17:06:57.023Z,4.37
2018-05-26T17:09:24.559Z,5.82
2018-05-26T17:11:52.008Z,4.50
2018-05-26T17:14:19.611Z,4.10
2018-05-26T17:16:47.914Z,4.68
2018-05-26T17:19:16.179Z,4.40
2018-05-26T17:21:44.456Z,3.90
2018-05-26T17:24:12.700Z,4.47
2018-05-26T17:26:40.176Z,3.80
2018-05-26T17:29:07.671Z,3.97
2018-05-26T17:31:36.023Z,3.90
2018-05-26T17:34:04.366Z,7.43
2018-05-26T17:36:32.073Z,3.95
2018-05-26T17:38:59.526Z,3.62
2018-05-26T17:41:27.786Z,4.93
2018-05-26T17:43:55.278Z,5.07
2018-05-26T17:46:22.779Z,6.18
2018-05-26T17:48:50.274Z,4.05
2018-05-26T17:51:18.534Z,3.78
2018-05-26T17:53:46.062Z,4.35
2018-05-26T17:56:13.537Z,4.28
2018-05-26T17:58:41.853Z,7.43
2018-05-26T18:01:09.432Z,3.90
2018-05-26T18:03:36.967Z,5.05
2018-05-26T18:06:05.312Z,4.40
2018-05-26T18:08:32.817Z,5.50
2018-05-26T18:11:00.299Z,5.10
2018-05-26T18:13:27.772Z,6.12
2018-05-26T18:15:55.319Z,5.40
2018-05-26T18:18:22.789Z,5.22
2018-05-26T18:20:50.284Z,4.50
2018-05-26T18:23:18.603Z,4.25
2018-05-26T18:25:46.074Z,5.22
2018-05-26T18:28:13.563Z,2.75
2018-05-26T18:30:41.088Z,2.97
2018-05-26T18:33:08.572Z,4.07
2018-05-26T18:35:36.160Z,5.53
2018-05-26T18:38:04.420Z,10.20
2018-05-26T18:40:31.943Z,9.50
2018-05-26T18:42:59.431Z,8.82
2018-05-26T18:45:26.933Z,10.10
2018-05-26T18:47:54.426Z,14.05
2018-05-26T18:50:21.909Z,8.80
2018-05-26T18:52:49.469Z,6.45
2018-05-26T18:55:16.952Z,7.53
2018-05-26T18:57:44.535Z,4.30
2018-05-26T19:00:12.001Z,7.37
2018-05-26T19:02:39.531Z,7.12
2018-05-26T19:05:07.363Z,6.43
2018-05-26T19:07:34.921Z,5.20
2018-05-26T19:10:03.015Z,4.57
2018-05-26T19:12:31.262Z,6.07
2018-05-26T19:14:58.826Z,4.70
2018-05-26T19:17:26.334Z,4.63
2018-05-26T19:19:53.831Z,5.43
2018-05-26T19:22:22.109Z,3.67
2018-05-26T19:24:49.599Z,4.33
2018-05-26T19:27:17.870Z,3.13
2018-05-26T19:29:46.126Z,4.60
2018-05-26T19:32:13.628Z,5.67
2018-05-26T19:34:41.137Z,5.20
2018-05-26T19:37:08.879Z,8.37
2018-05-26T19:39:36.983Z,5.03
2018-05-26T19:42:04.466Z,4.60
2018-05-26T19:44:32.715Z,5.03
2018-05-26T19:47:00.793Z,8.80
2018-05-26T19:49:28.282Z,6.23
2018-05-26T19:51:56.542Z,7.17
2018-05-26T19:54:24.799Z,6.27
2018-05-26T19:56:52.346Z,3.80
2018-05-26T19:59:19.821Z,4.23
2018-05-26T20:01:47.315Z,5.87
2018-05-26T20:04:14.790Z,4.63
2018-05-26T20:06:42.279Z,6.90
2018-05-26T20:09:09.765Z,6.90
2018-05-26T20:11:38.030Z,6.83
2018-05-26T20:14:05.641Z,7.57
2018-05-26T20:16:33.234Z,7.50
2018-05-26T20:19:00.726Z,6.60
2018-05-26T20:21:28.978Z,5.60
2018-05-26T20:23:56.520Z,3.87
2018-05-26T20:26:24.007Z,5.67
2018-05-26T20:28:51.516Z,6.13
2018-05-26T20:31:19.051Z,6.60
2018-05-26T20:33:46.590Z,7.17
2018-05-26T20:36:14.083Z,6.27
2018-05-26T20:38:41.566Z,4.07
2018-05-26T20:41:09.116Z,3.90
2018-05-26T20:43:36.607Z,5.33
2018-05-26T20:46:05.594Z,9.10
2018-05-26T20:48:33.154Z,7.93
2018-05-26T20:51:00.645Z,6.77
2018-05-26T20:53:28.897Z,5.20
2018-05-26T20:55:56.430Z,7.37
2018-05-26T20:58:23.907Z,3.90
2018-05-26T21:00:51.599Z,4.23
2018-05-26T21:03:19.860Z,7.20
2018-05-26T21:05:47.429Z,10.33
2018-05-26T21:08:15.695Z,7.50
2018-05-26T21:10:43.219Z,5.80
2018-05-26T21:13:10.849Z,3.50
2018-05-26T21:15:38.315Z,4.83
2018-05-26T21:18:05.845Z,3.20
2018-05-26T21:20:34.083Z,5.83
2018-05-26T21:23:02.479Z,6.10
2018-05-26T21:25:30.036Z,8.07
2018-05-26T21:27:57.537Z,7.23
2018-05-26T21:30:25.059Z,5.37
2018-05-26T21:32:52.537Z,7.70
2018-05-26T21:35:20.787Z,5.87
2018-05-26T21:37:48.331Z,7.70
2018-05-26T21:40:15.852Z,6.87
2018-05-26T21:42:43.390Z,5.87
2018-05-26T21:45:11.660Z,8.27
2018-05-26T21:47:39.916Z,8.57
2018-05-26T21:50:07.432Z,8.57
2018-05-26T21:52:34.984Z,7.50
2018-05-26T21:55:02.447Z,8.20
2018-05-26T21:57:29.951Z,6.70
2018-05-26T21:59:57.489Z,8.17
2018-05-26T22:02:25.024Z,4.47
2018-05-26T22:04:52.533Z,5.40
2018-05-26T22:07:20.039Z,10.90
2018-05-26T22:09:47.501Z,6.63
2018-05-26T22:12:15.049Z,5.17
2018-05-26T22:14:42.577Z,8.20
2018-05-26T22:17:10.050Z,8.13
2018-05-26T22:19:37.936Z,6.07
2018-05-26T22:22:05.466Z,5.87
2018-05-26T22:24:33.729Z,6.10
2018-05-26T22:27:02.595Z,5.33
2018-05-26T22:29:30.072Z,5.10
2018-05-26T22:31:58.334Z,4.53
2018-05-26T22:34:25.822Z,6.93
2018-05-26T22:36:53.389Z,5.67
2018-05-26T22:39:21.632Z,7.37
2018-05-26T22:41:49.914Z,6.43
2018-05-26T22:44:17.588Z,9.60
2018-05-26T22:46:45.824Z,15.07
2018-05-26T22:49:13.352Z,12.63
2018-05-26T22:51:40.834Z,8.03
2018-05-26T22:54:08.437Z,8.33
2018-05-26T22:56:36.678Z,6.63
2018-05-26T22:59:04.235Z,7.03
2018-05-26T23:01:31.845Z,6.00
2018-05-26T23:03:59.440Z,8.90
2018-05-26T23:06:26.912Z,8.30
2018-05-26T23:08:55.000Z,9.50
2018-05-26T23:11:22.486Z,9.20
2018-05-26T23:13:50.726Z,5.67
2018-05-26T23:16:18.582Z,8.70
2018-05-26T23:18:46.078Z,8.10
2018-05-26T23:21:13.716Z,6.67
2018-05-26T23:23:41.369Z,9.60
2018-05-26T23:26:08.844Z,8.83
2018-05-26T23:28:36.310Z,6.40
2018-05-26T23:31:04.548Z,11.43
2018-05-26T23:33:32.044Z,11.33
2018-05-26T23:36:00.932Z,11.70
2018-05-26T23:38:28.413Z,12.23
2018-05-26T23:40:56.694Z,11.70
2018-05-26T23:43:24.932Z,9.27
2018-05-26T23:45:52.454Z,11.00
2018-05-26T23:48:20.100Z,12.13
2018-05-26T23:50:47.645Z,12.77
2018-05-26T23:53:15.855Z,14.47
2018-05-26T23:55:43.337Z,14.63
2018-05-26T23:58:10.859Z,16.20
